Mississauga, Canada
Current Conditions -  °F | °C
As of 7:18 AM on Monday 26 Jan 2015 (Local Time) from CYYZ Reporting Station
Broken Clouds Broken Clouds  
Wind Chill: -6°   Ceiling: 14000
Heat Index:   Visibility: 10mi
Dew Point:   Wind: 10mph
Humidity: 73%   Direction: 50°NE
Pressure: 30"   Gusts: NA
Location:  43.59°N, 79.64°W
Report Text: CYYZ 261218Z 05009KT 10SM FEW015 BKN140 M13/M17 A3000 RMK SC2AS4 SLP174
Loading
Personal Weather Stations






























Interactive Weather Map New forecast layout! Learn more

10-Day Weather Forecast

Advertisements
Track Severe Weather on mobile